createdAt,value
2019-03-19T00:00:39.230Z,3.82
2019-03-19T00:01:39.246Z,3.77
2019-03-19T00:02:39.178Z,3.81
2019-03-19T00:03:39.153Z,3.74
2019-03-19T00:04:39.123Z,3.81
2019-03-19T00:05:39.098Z,3.77
2019-03-19T00:06:39.069Z,3.77
2019-03-19T00:07:39.077Z,3.86
2019-03-19T00:08:39.016Z,3.77
2019-03-19T00:09:39.041Z,3.84
2019-03-19T00:10:38.998Z,3.78
2019-03-19T00:11:39.010Z,3.76
2019-03-19T00:12:38.937Z,3.76
2019-03-19T00:13:38.881Z,3.84
2019-03-19T00:14:38.957Z,3.81
2019-03-19T00:15:38.850Z,3.76
2019-03-19T00:16:38.803Z,3.76
2019-03-19T00:17:38.784Z,3.76
2019-03-19T00:18:38.757Z,3.81
2019-03-19T00:19:39.340Z,3.82
2019-03-19T00:20:38.722Z,3.74
2019-03-19T00:21:38.670Z,3.85
2019-03-19T00:22:38.643Z,3.71
2019-03-19T00:23:38.618Z,3.74
2019-03-19T00:24:38.627Z,3.77
2019-03-19T00:25:38.567Z,3.78
2019-03-19T00:26:38.539Z,3.78
2019-03-19T00:27:38.513Z,3.73
2019-03-19T00:28:39.147Z,3.73
2019-03-19T00:29:38.456Z,3.73
2019-03-19T00:30:38.431Z,3.68
2019-03-19T00:31:38.407Z,3.73
2019-03-19T00:32:38.375Z,3.73
2019-03-19T00:33:38.353Z,3.68
2019-03-19T00:34:38.327Z,3.67
2019-03-19T00:35:38.295Z,3.66
2019-03-19T00:36:38.268Z,3.59
2019-03-19T00:37:38.245Z,3.71
2019-03-19T00:38:38.221Z,3.67
2019-03-19T00:39:38.192Z,3.66
2019-03-19T00:40:38.161Z,3.68
2019-03-19T00:41:38.140Z,3.63
2019-03-19T00:42:38.108Z,3.71
2019-03-19T00:43:38.080Z,3.70
2019-03-19T00:44:38.054Z,3.63
2019-03-19T00:45:38.025Z,3.63
2019-03-19T00:46:37.999Z,3.59
2019-03-19T00:47:37.972Z,3.56
2019-03-19T00:48:37.948Z,3.50
2019-03-19T00:49:38.411Z,3.50
2019-03-19T00:50:37.896Z,3.49
2019-03-19T00:51:37.869Z,3.46
2019-03-19T00:52:37.860Z,3.49
2019-03-19T00:53:37.812Z,3.52
2019-03-19T00:54:37.784Z,3.49
2019-03-19T00:55:40.983Z,3.53
2019-03-19T00:56:37.731Z,3.34
2019-03-19T00:57:37.709Z,3.33
2019-03-19T00:58:37.681Z,3.49
2019-03-19T00:59:37.654Z,3.48
2019-03-19T01:00:37.640Z,3.50
2019-03-19T01:01:38.810Z,3.36
2019-03-19T01:02:37.571Z,3.43
2019-03-19T01:03:37.543Z,3.41
2019-03-19T01:04:37.518Z,3.31
2019-03-19T01:05:37.500Z,3.26
2019-03-19T01:06:37.463Z,3.27
2019-03-19T01:07:37.437Z,3.27
2019-03-19T01:08:37.415Z,3.19
2019-03-19T01:09:37.382Z,3.11
2019-03-19T01:10:37.353Z,3.12
2019-03-19T01:11:37.365Z,3.11
2019-03-19T01:12:37.302Z,3.09
2019-03-19T01:13:37.276Z,3.11
2019-03-19T01:14:37.282Z,3.12
2019-03-19T01:15:37.224Z,3.13
2019-03-19T01:16:37.193Z,3.11
2019-03-19T01:17:37.169Z,3.11
2019-03-19T01:18:37.157Z,3.01
2019-03-19T01:19:37.128Z,2.97
2019-03-19T01:20:37.084Z,2.94
2019-03-19T01:21:37.121Z,2.98
2019-03-19T01:22:37.034Z,3.03
2019-03-19T01:23:37.030Z,2.94
2019-03-19T01:24:36.995Z,2.98
2019-03-19T01:25:36.974Z,2.94
2019-03-19T01:26:36.923Z,2.94
2019-03-19T01:27:36.896Z,2.90
2019-03-19T01:28:36.867Z,2.93
2019-03-19T01:29:36.858Z,2.83
2019-03-19T01:30:36.813Z,2.77
2019-03-19T01:31:36.801Z,2.76
2019-03-19T01:32:36.764Z,2.80
2019-03-19T01:33:36.733Z,2.75
2019-03-19T01:34:36.704Z,2.73
2019-03-19T01:35:36.684Z,2.88
2019-03-19T01:36:36.651Z,2.87
2019-03-19T01:37:36.626Z,2.83
2019-03-19T01:38:36.595Z,2.76
2019-03-19T01:39:36.570Z,2.77
2019-03-19T01:40:36.541Z,2.76
2019-03-19T01:41:36.513Z,2.76
2019-03-19T01:42:36.492Z,2.76
2019-03-19T01:43:36.461Z,2.76
2019-03-19T01:44:36.432Z,2.73
2019-03-19T01:45:36.406Z,2.70
2019-03-19T01:46:36.378Z,2.80
2019-03-19T01:47:36.356Z,2.80
2019-03-19T01:48:36.330Z,2.83
2019-03-19T01:49:36.305Z,2.77
2019-03-19T01:50:36.269Z,2.85
2019-03-19T01:51:36.244Z,2.80
2019-03-19T01:52:36.216Z,2.83
2019-03-19T01:53:36.185Z,2.77
2019-03-19T01:54:36.164Z,2.88
2019-03-19T01:55:36.131Z,2.83
2019-03-19T01:56:36.110Z,2.87
2019-03-19T01:57:36.084Z,2.91
2019-03-19T01:58:36.067Z,2.88
2019-03-19T01:59:36.026Z,2.93
2019-03-19T02:00:36.023Z,2.94
2019-03-19T02:01:36.055Z,2.97
2019-03-19T02:02:35.944Z,2.95
2019-03-19T02:03:35.916Z,2.88
2019-03-19T02:04:35.921Z,2.93
2019-03-19T02:05:35.857Z,2.94
2019-03-19T02:06:35.831Z,2.91
2019-03-19T02:07:35.805Z,2.94
2019-03-19T02:08:35.821Z,2.88
2019-03-19T02:09:35.749Z,2.91
2019-03-19T02:10:35.721Z,2.83
2019-03-19T02:11:38.236Z,2.76
2019-03-19T02:12:35.668Z,2.75
2019-03-19T02:13:35.647Z,2.76
2019-03-19T02:14:35.613Z,2.73
2019-03-19T02:15:35.599Z,2.91
2019-03-19T02:16:36.316Z,2.76
2019-03-19T02:17:35.545Z,2.80
2019-03-19T02:18:35.506Z,2.75
2019-03-19T02:19:35.478Z,2.80
2019-03-19T02:20:35.459Z,2.82
2019-03-19T02:21:35.423Z,2.88
2019-03-19T02:22:35.414Z,2.87
2019-03-19T02:23:35.364Z,2.95
2019-03-19T02:24:35.340Z,2.90
2019-03-19T02:25:35.316Z,3.00
2019-03-19T02:26:35.285Z,2.90
2019-03-19T02:27:35.260Z,2.93
2019-03-19T02:28:35.277Z,2.90
2019-03-19T02:29:35.206Z,2.91
2019-03-19T02:30:35.193Z,2.83
2019-03-19T02:31:35.161Z,2.90
2019-03-19T02:32:35.126Z,2.95
2019-03-19T02:33:35.100Z,2.90
2019-03-19T02:34:35.075Z,2.94
2019-03-19T02:35:35.045Z,2.87
2019-03-19T02:36:35.015Z,2.88
2019-03-19T02:37:34.987Z,2.91
2019-03-19T02:38:34.980Z,2.91
2019-03-19T02:39:34.934Z,2.87
2019-03-19T02:40:34.905Z,2.93
2019-03-19T02:41:34.887Z,2.88
2019-03-19T02:42:34.854Z,2.87
2019-03-19T02:43:34.825Z,2.88
2019-03-19T02:44:34.798Z,2.91
2019-03-19T02:45:34.768Z,2.87
2019-03-19T02:46:34.743Z,2.91
2019-03-19T02:47:34.717Z,2.93
2019-03-19T02:48:34.696Z,2.90
2019-03-19T02:49:34.658Z,2.85
2019-03-19T02:50:34.735Z,2.80
2019-03-19T02:51:34.633Z,2.77
2019-03-19T02:52:34.576Z,2.79
2019-03-19T02:53:34.550Z,2.83
2019-03-19T02:54:34.527Z,2.76
2019-03-19T02:55:34.499Z,2.79
2019-03-19T02:56:34.469Z,2.79
2019-03-19T02:57:34.443Z,2.75
2019-03-19T02:58:34.414Z,2.70
2019-03-19T02:59:34.386Z,2.75
2019-03-19T03:00:34.358Z,2.65
2019-03-19T03:01:34.328Z,2.76
2019-03-19T03:02:34.311Z,2.72
2019-03-19T03:03:34.349Z,2.70
2019-03-19T03:04:34.274Z,2.75
2019-03-19T03:05:34.269Z,2.62
2019-03-19T03:06:34.214Z,2.62
2019-03-19T03:07:34.181Z,2.62
2019-03-19T03:08:34.140Z,2.61
2019-03-19T03:09:34.113Z,2.55
2019-03-19T03:10:34.093Z,2.54
2019-03-19T03:11:34.066Z,2.57
2019-03-19T03:12:34.033Z,2.59
2019-03-19T03:13:34.008Z,2.54
2019-03-19T03:14:33.974Z,2.58
2019-03-19T03:15:33.954Z,2.51
2019-03-19T03:16:33.921Z,2.57
2019-03-19T03:17:34.607Z,2.57
2019-03-19T03:18:33.874Z,2.54
2019-03-19T03:19:33.865Z,2.57
2019-03-19T03:20:33.846Z,2.41
2019-03-19T03:21:34.809Z,2.57
2019-03-19T03:22:33.753Z,2.52
2019-03-19T03:23:33.750Z,2.47
2019-03-19T03:24:33.728Z,2.51
2019-03-19T03:25:33.702Z,2.47
2019-03-19T03:26:46.834Z,2.51
2019-03-19T03:27:33.636Z,2.52
2019-03-19T03:28:33.616Z,2.51
2019-03-19T03:29:33.561Z,2.50
2019-03-19T03:30:33.594Z,2.55
2019-03-19T03:31:33.507Z,2.59
2019-03-19T03:32:33.480Z,2.55
2019-03-19T03:33:33.454Z,2.64
2019-03-19T03:34:33.424Z,2.58
2019-03-19T03:35:33.415Z,2.70
2019-03-19T03:36:33.370Z,2.69
2019-03-19T03:37:33.342Z,2.69
2019-03-19T03:38:33.315Z,2.65
2019-03-19T03:39:33.289Z,2.76
2019-03-19T03:40:33.279Z,2.62
2019-03-19T03:41:33.234Z,2.57
2019-03-19T03:42:33.235Z,2.65
2019-03-19T03:43:33.221Z,2.59
2019-03-19T03:44:33.151Z,2.58
2019-03-19T03:45:34.007Z,2.57
2019-03-19T03:46:33.099Z,2.61
2019-03-19T03:47:33.075Z,2.51
2019-03-19T03:48:33.042Z,2.47
2019-03-19T03:49:33.015Z,2.54
2019-03-19T03:50:32.985Z,2.46
2019-03-19T03:51:32.958Z,2.46
2019-03-19T03:52:32.932Z,2.51
2019-03-19T03:53:32.911Z,2.43
2019-03-19T03:54:32.896Z,2.46
2019-03-19T03:55:32.846Z,2.37
2019-03-19T03:56:32.822Z,2.39
2019-03-19T03:57:32.791Z,2.32
2019-03-19T03:58:32.763Z,2.30
2019-03-19T03:59:32.734Z,2.19
2019-03-19T04:00:32.708Z,2.19
2019-03-19T04:01:32.679Z,2.18
2019-03-19T04:02:32.652Z,2.21
2019-03-19T04:03:32.625Z,2.15
2019-03-19T04:04:32.594Z,2.12
2019-03-19T04:05:32.569Z,2.10
2019-03-19T04:06:32.542Z,2.05
2019-03-19T04:07:32.512Z,2.10
2019-03-19T04:08:32.485Z,2.03
2019-03-19T04:09:32.456Z,2.03
2019-03-19T04:10:32.428Z,2.07
2019-03-19T04:11:32.403Z,2.01
2019-03-19T04:12:32.377Z,2.10
2019-03-19T04:13:32.344Z,2.14
2019-03-19T04:14:32.319Z,2.18
2019-03-19T04:15:32.286Z,2.12
2019-03-19T04:16:32.264Z,2.15
2019-03-19T04:17:32.240Z,2.15
2019-03-19T04:18:32.990Z,2.18
2019-03-19T04:19:32.193Z,2.10
2019-03-19T04:20:32.213Z,2.01
2019-03-19T04:21:32.126Z,2.08
2019-03-19T04:22:32.094Z,2.07
2019-03-19T04:23:32.069Z,2.04
2019-03-19T04:24:32.043Z,2.04
2019-03-19T04:25:32.009Z,2.07
2019-03-19T04:26:31.983Z,2.07
2019-03-19T04:27:31.953Z,2.05
2019-03-19T04:28:31.946Z,1.98
2019-03-19T04:29:31.913Z,2.07
2019-03-19T04:30:31.870Z,2.00
2019-03-19T04:31:31.842Z,2.01
2019-03-19T04:32:31.812Z,2.07
2019-03-19T04:33:31.787Z,2.05
2019-03-19T04:34:31.760Z,2.08
2019-03-19T04:35:31.730Z,2.01
2019-03-19T04:36:31.700Z,2.08
2019-03-19T04:37:31.672Z,2.04
2019-03-19T04:38:31.649Z,2.00
2019-03-19T04:39:31.616Z,2.07
2019-03-19T04:40:31.589Z,2.07
2019-03-19T04:41:31.563Z,2.03
2019-03-19T04:42:31.531Z,2.07
2019-03-19T04:43:31.503Z,2.07
2019-03-19T04:44:31.512Z,2.07
2019-03-19T04:45:31.455Z,2.08
2019-03-19T04:46:31.420Z,2.04
2019-03-19T04:47:31.391Z,2.01
2019-03-19T04:48:31.698Z,2.05
2019-03-19T04:49:31.338Z,2.07
2019-03-19T04:50:31.307Z,2.00
2019-03-19T04:51:31.275Z,2.01
2019-03-19T04:52:31.257Z,2.00
2019-03-19T04:53:31.296Z,1.98
2019-03-19T04:54:31.197Z,1.95
2019-03-19T04:55:31.166Z,2.03
2019-03-19T04:56:31.138Z,2.00
2019-03-19T04:57:31.114Z,1.98
2019-03-19T04:58:31.079Z,1.93
2019-03-19T04:59:31.056Z,2.03
2019-03-19T05:00:31.023Z,1.97
2019-03-19T05:01:31.008Z,1.98
2019-03-19T05:02:30.973Z,1.95
2019-03-19T05:03:30.939Z,1.97
2019-03-19T05:04:30.910Z,1.95
2019-03-19T05:05:30.891Z,1.98
2019-03-19T05:06:30.864Z,1.97
2019-03-19T05:07:30.879Z,2.04
2019-03-19T05:08:30.798Z,2.00
2019-03-19T05:09:30.770Z,1.97
2019-03-19T05:10:30.743Z,2.00
2019-03-19T05:11:30.714Z,2.04
2019-03-19T05:12:30.684Z,1.92
2019-03-19T05:13:30.658Z,1.97
2019-03-19T05:14:30.631Z,1.97
2019-03-19T05:15:30.606Z,2.01
2019-03-19T05:16:30.574Z,2.01
2019-03-19T05:17:30.548Z,1.93
2019-03-19T05:18:31.518Z,1.84
2019-03-19T05:19:30.488Z,1.88
2019-03-19T05:20:30.459Z,1.93
2019-03-19T05:21:30.456Z,1.86
2019-03-19T05:22:31.405Z,1.92
2019-03-19T05:23:30.376Z,1.78
2019-03-19T05:24:30.500Z,1.81
2019-03-19T05:25:30.323Z,1.84
2019-03-19T05:26:31.015Z,1.78
2019-03-19T05:27:37.272Z,1.85
2019-03-19T05:28:30.241Z,1.88
2019-03-19T05:29:30.205Z,1.86
2019-03-19T05:30:30.174Z,1.93
2019-03-19T05:31:30.145Z,1.85
2019-03-19T05:32:30.124Z,1.79
2019-03-19T05:33:30.087Z,1.86
2019-03-19T05:34:30.123Z,1.86
2019-03-19T05:35:30.031Z,1.88
2019-03-19T05:36:30.011Z,1.84
2019-03-19T05:37:29.974Z,1.81
2019-03-19T05:38:30.003Z,1.86
2019-03-19T05:39:29.918Z,1.86
2019-03-19T05:40:29.889Z,1.95
2019-03-19T05:41:29.865Z,1.86
2019-03-19T05:42:29.846Z,1.89
2019-03-19T05:43:29.802Z,1.86
2019-03-19T05:44:29.773Z,1.86
2019-03-19T05:45:29.745Z,1.86
2019-03-19T05:46:29.718Z,1.86
2019-03-19T05:47:36.962Z,1.85
2019-03-19T05:48:29.665Z,1.89
2019-03-19T05:49:29.631Z,1.93
2019-03-19T05:50:29.605Z,1.97
2019-03-19T05:51:29.581Z,1.89
2019-03-19T05:52:29.547Z,2.04
2019-03-19T05:53:29.520Z,1.88
2019-03-19T05:54:29.510Z,1.88
2019-03-19T05:55:29.460Z,2.00
2019-03-19T05:56:29.433Z,1.88
2019-03-19T05:57:29.404Z,1.92
2019-03-19T05:58:29.381Z,1.97
2019-03-19T05:59:29.348Z,1.95
2019-03-19T06:00:29.324Z,2.00
2019-03-19T06:01:29.297Z,2.07
2019-03-19T06:02:29.267Z,1.97
2019-03-19T06:03:29.263Z,1.97
2019-03-19T06:04:29.204Z,1.89
2019-03-19T06:05:29.175Z,1.89
2019-03-19T06:06:29.150Z,1.92
2019-03-19T06:07:29.155Z,1.97
2019-03-19T06:08:29.094Z,1.98
2019-03-19T06:09:29.062Z,2.05
2019-03-19T06:10:29.049Z,2.00
2019-03-19T06:11:29.002Z,2.00
2019-03-19T06:12:28.972Z,1.95
2019-03-19T06:13:28.949Z,2.00
2019-03-19T06:14:28.920Z,2.08
2019-03-19T06:15:28.886Z,2.03
2019-03-19T06:16:28.859Z,2.04
2019-03-19T06:17:29.394Z,2.08
2019-03-19T06:18:35.066Z,2.05
2019-03-19T06:19:28.777Z,2.12
2019-03-19T06:20:28.743Z,2.08
2019-03-19T06:21:28.715Z,2.10
2019-03-19T06:22:28.689Z,2.21
2019-03-19T06:23:28.659Z,2.10
2019-03-19T06:24:28.637Z,2.25
2019-03-19T06:25:28.601Z,2.15
2019-03-19T06:26:28.572Z,2.15
2019-03-19T06:27:28.552Z,2.25
2019-03-19T06:28:28.514Z,2.22
2019-03-19T06:29:28.486Z,2.28
2019-03-19T06:30:28.457Z,2.30
2019-03-19T06:31:28.429Z,2.30
2019-03-19T06:32:28.407Z,2.36
2019-03-19T06:33:28.394Z,2.40
2019-03-19T06:34:28.342Z,2.28
2019-03-19T06:35:28.312Z,2.36
2019-03-19T06:36:28.287Z,2.50
2019-03-19T06:37:28.260Z,2.44
2019-03-19T06:38:28.230Z,2.34
2019-03-19T06:39:28.200Z,2.47
2019-03-19T06:40:28.173Z,2.52
2019-03-19T06:41:28.147Z,2.51
2019-03-19T06:42:28.117Z,2.54
2019-03-19T06:43:28.091Z,2.61
2019-03-19T06:44:28.059Z,2.59
2019-03-19T06:45:28.036Z,2.59
2019-03-19T06:46:28.003Z,2.62
2019-03-19T06:47:27.981Z,2.70
2019-03-19T06:48:27.950Z,2.75
2019-03-19T06:49:27.918Z,2.87
2019-03-19T06:50:28.282Z,2.91
2019-03-19T06:51:27.861Z,2.88
2019-03-19T06:52:27.848Z,2.90
2019-03-19T06:53:27.806Z,2.88
2019-03-19T06:54:27.781Z,2.95
2019-03-19T06:55:27.749Z,2.88
2019-03-19T06:56:27.720Z,2.88
2019-03-19T06:57:27.692Z,2.91
2019-03-19T06:58:27.665Z,2.88
2019-03-19T06:59:27.635Z,2.97
2019-03-19T07:00:27.606Z,2.95
2019-03-19T07:01:27.581Z,3.00
2019-03-19T07:02:27.559Z,3.05
2019-03-19T07:03:27.523Z,2.98
2019-03-19T07:04:27.497Z,3.03
2019-03-19T07:05:27.467Z,3.13
2019-03-19T07:06:27.439Z,3.06
2019-03-19T07:07:27.410Z,3.15
2019-03-19T07:08:27.382Z,3.13
2019-03-19T07:09:27.355Z,3.22
2019-03-19T07:10:27.330Z,3.24
2019-03-19T07:11:27.297Z,3.30
2019-03-19T07:12:27.273Z,3.27
2019-03-19T07:13:27.242Z,3.27
2019-03-19T07:14:27.214Z,3.37
2019-03-19T07:15:27.186Z,3.33
2019-03-19T07:16:27.169Z,3.46
2019-03-19T07:17:27.181Z,3.53
2019-03-19T07:18:27.404Z,3.55
2019-03-19T07:19:27.077Z,3.53
2019-03-19T07:20:27.048Z,3.49
2019-03-19T07:21:27.022Z,3.55
2019-03-19T07:22:26.991Z,3.53
2019-03-19T07:23:26.964Z,3.68
2019-03-19T07:24:26.937Z,3.68
2019-03-19T07:25:26.912Z,3.68
2019-03-19T07:26:26.884Z,3.81
2019-03-19T07:27:26.854Z,3.82
2019-03-19T07:28:26.826Z,3.84
2019-03-19T07:29:26.798Z,3.86
2019-03-19T07:30:26.769Z,3.86
2019-03-19T07:31:31.057Z,3.91
2019-03-19T07:32:26.717Z,3.96
2019-03-19T07:33:26.690Z,4.00
2019-03-19T07:34:26.660Z,4.13
2019-03-19T07:35:26.636Z,4.16
2019-03-19T07:36:26.609Z,4.22
2019-03-19T07:37:26.578Z,4.25
2019-03-19T07:38:26.552Z,4.31
2019-03-19T07:39:26.530Z,4.36
2019-03-19T07:40:26.499Z,4.31
2019-03-19T07:41:26.470Z,4.40
2019-03-19T07:42:26.443Z,4.46
2019-03-19T07:43:26.415Z,4.56
2019-03-19T07:44:26.401Z,4.53
2019-03-19T07:45:26.391Z,4.67
2019-03-19T07:46:26.334Z,4.70
2019-03-19T07:47:26.307Z,4.70
2019-03-19T07:48:26.281Z,4.74
2019-03-19T07:49:26.255Z,4.66
2019-03-19T07:50:26.229Z,4.63
2019-03-19T07:51:26.200Z,4.71
2019-03-19T07:52:26.174Z,4.74
2019-03-19T07:53:26.149Z,4.87
2019-03-19T07:54:26.122Z,4.83
2019-03-19T07:55:26.092Z,4.87
2019-03-19T07:56:26.066Z,4.86
2019-03-19T07:57:26.039Z,4.92
2019-03-19T07:58:35.785Z,4.97
2019-03-19T07:59:25.989Z,5.01
2019-03-19T08:00:25.959Z,5.02
2019-03-19T08:01:25.933Z,5.10
2019-03-19T08:02:25.906Z,5.08
2019-03-19T08:03:25.878Z,5.16
2019-03-19T08:04:25.855Z,5.26
2019-03-19T08:05:32.894Z,5.20
2019-03-19T08:06:25.801Z,5.33
2019-03-19T08:07:25.772Z,5.22
2019-03-19T08:08:25.762Z,5.40
2019-03-19T08:09:25.742Z,5.41
2019-03-19T08:10:25.695Z,5.34
2019-03-19T08:11:25.671Z,5.47
2019-03-19T08:12:25.645Z,5.49
2019-03-19T08:13:25.615Z,5.47
2019-03-19T08:14:25.588Z,5.54
2019-03-19T08:15:25.560Z,5.56
2019-03-19T08:16:27.655Z,5.61
2019-03-19T08:17:25.510Z,5.59
2019-03-19T08:18:25.482Z,5.70
2019-03-19T08:19:25.454Z,5.70
2019-03-19T08:20:25.428Z,5.79
2019-03-19T08:21:25.404Z,5.87
2019-03-19T08:22:25.376Z,5.92
2019-03-19T08:23:25.349Z,6.05
2019-03-19T08:24:25.322Z,6.02
2019-03-19T08:25:25.296Z,6.10
2019-03-19T08:26:25.270Z,6.15
2019-03-19T08:27:25.244Z,6.19
2019-03-19T08:28:25.217Z,6.19
2019-03-19T08:29:25.193Z,6.26
2019-03-19T08:30:25.334Z,6.31
2019-03-19T08:31:25.146Z,6.41
2019-03-19T08:32:25.114Z,6.35
2019-03-19T08:33:25.088Z,6.46
2019-03-19T08:34:25.062Z,6.50
2019-03-19T08:35:25.035Z,6.56
2019-03-19T08:36:25.010Z,6.68
2019-03-19T08:37:24.985Z,6.67
2019-03-19T08:38:26.544Z,6.75
2019-03-19T08:39:24.933Z,6.82
2019-03-19T08:40:24.906Z,6.82
2019-03-19T08:41:24.880Z,6.96
2019-03-19T08:42:24.857Z,7.01
2019-03-19T08:43:24.827Z,7.08
2019-03-19T08:44:28.022Z,7.04
2019-03-19T08:45:24.776Z,7.10
2019-03-19T08:46:24.751Z,7.11
2019-03-19T08:47:24.725Z,7.19
2019-03-19T08:48:24.697Z,7.22
2019-03-19T08:49:24.673Z,7.15
2019-03-19T08:50:25.369Z,7.23
2019-03-19T08:51:24.622Z,7.25
2019-03-19T08:52:24.597Z,7.26
2019-03-19T08:53:24.571Z,7.33
2019-03-19T08:54:24.550Z,7.37
2019-03-19T08:55:24.523Z,7.44
2019-03-19T08:56:24.501Z,7.44
2019-03-19T08:57:24.481Z,7.48
2019-03-19T08:58:24.444Z,7.50
2019-03-19T08:59:24.418Z,7.62
2019-03-19T09:00:24.416Z,7.61
2019-03-19T09:01:24.387Z,7.48
2019-03-19T09:02:24.345Z,7.61
2019-03-19T09:03:24.320Z,7.56
2019-03-19T09:04:24.293Z,7.75
2019-03-19T09:05:24.267Z,7.75
2019-03-19T09:06:24.242Z,7.70
2019-03-19T09:07:24.218Z,7.84
2019-03-19T09:08:24.191Z,7.93
2019-03-19T09:09:24.167Z,8.02
2019-03-19T09:10:24.143Z,8.09
2019-03-19T09:11:24.120Z,8.23
2019-03-19T09:12:24.096Z,8.26
2019-03-19T09:13:24.068Z,8.18
2019-03-19T09:14:24.042Z,8.23
2019-03-19T09:15:24.018Z,8.32
2019-03-19T09:16:23.995Z,8.28
2019-03-19T09:17:23.971Z,8.18
2019-03-19T09:18:23.943Z,8.23
2019-03-19T09:19:23.918Z,8.02
2019-03-19T09:20:23.937Z,8.23
2019-03-19T09:21:23.869Z,8.31
2019-03-19T09:22:29.542Z,8.28
2019-03-19T09:23:23.819Z,8.26
2019-03-19T09:24:23.799Z,8.16
2019-03-19T09:25:23.776Z,8.20
2019-03-19T09:26:23.746Z,8.17
2019-03-19T09:27:23.722Z,8.18
2019-03-19T09:28:23.696Z,8.16
2019-03-19T09:29:25.363Z,8.20
2019-03-19T09:30:23.656Z,8.24
2019-03-19T09:31:23.627Z,8.24
2019-03-19T09:32:23.601Z,8.26
2019-03-19T09:33:23.575Z,8.08
2019-03-19T09:34:23.552Z,8.06
2019-03-19T09:35:23.526Z,8.09
2019-03-19T09:36:23.503Z,8.05
2019-03-19T09:37:23.477Z,8.13
2019-03-19T09:38:23.454Z,8.03
2019-03-19T09:39:23.429Z,8.02
2019-03-19T09:40:23.404Z,8.03
2019-03-19T09:41:23.389Z,7.98
2019-03-19T09:42:23.355Z,7.90
2019-03-19T09:43:23.332Z,7.90
2019-03-19T09:44:23.309Z,7.93
2019-03-19T09:45:23.297Z,8.01
2019-03-19T09:46:23.271Z,8.03
2019-03-19T09:47:23.275Z,8.03
2019-03-19T09:48:23.210Z,8.13
2019-03-19T09:49:23.185Z,8.09
2019-03-19T09:50:23.161Z,8.11
2019-03-19T09:51:23.364Z,8.08
2019-03-19T09:52:23.111Z,8.14
2019-03-19T09:53:23.091Z,8.16
2019-03-19T09:54:23.071Z,8.11
2019-03-19T09:55:23.038Z,8.17
2019-03-19T09:56:23.016Z,8.23
2019-03-19T09:57:22.991Z,8.20
2019-03-19T09:58:23.031Z,8.20
2019-03-19T09:59:27.046Z,8.26
2019-03-19T10:00:22.940Z,8.16
2019-03-19T10:01:22.895Z,8.09
2019-03-19T10:02:23.883Z,8.06
2019-03-19T10:03:22.849Z,8.14
2019-03-19T10:04:22.827Z,8.11
2019-03-19T10:05:22.804Z,8.17
2019-03-19T10:06:22.826Z,8.01
2019-03-19T10:07:22.753Z,8.02
2019-03-19T10:08:22.726Z,7.98
2019-03-19T10:09:22.702Z,7.91
2019-03-19T10:10:22.694Z,8.02
2019-03-19T10:11:22.654Z,8.05
2019-03-19T10:12:22.642Z,8.09
2019-03-19T10:13:22.608Z,8.09
2019-03-19T10:14:22.582Z,8.16
2019-03-19T10:15:22.558Z,8.09
2019-03-19T10:16:22.534Z,8.09
2019-03-19T10:17:22.514Z,8.09
2019-03-19T10:18:22.492Z,8.08
2019-03-19T10:19:22.463Z,8.06
2019-03-19T10:20:22.438Z,7.96
2019-03-19T10:21:22.412Z,7.93
2019-03-19T10:22:22.389Z,7.87
2019-03-19T10:23:22.366Z,7.90
2019-03-19T10:24:22.339Z,7.95
2019-03-19T10:25:22.316Z,8.06
2019-03-19T10:26:22.294Z,8.34
2019-03-19T10:27:22.270Z,8.41
2019-03-19T10:28:22.266Z,8.69
2019-03-19T10:29:22.219Z,8.79
2019-03-19T10:30:22.206Z,8.93
2019-03-19T10:31:22.173Z,8.93
2019-03-19T10:32:22.155Z,9.21
2019-03-19T10:33:22.127Z,9.26
2019-03-19T10:34:22.101Z,9.36
2019-03-19T10:35:22.079Z,9.37
2019-03-19T10:36:22.052Z,9.40
2019-03-19T10:37:22.034Z,9.49
2019-03-19T10:38:22.034Z,9.63
2019-03-19T10:39:21.983Z,9.70
2019-03-19T10:40:21.995Z,9.73
2019-03-19T10:41:21.937Z,9.90
2019-03-19T10:42:21.917Z,9.90
2019-03-19T10:43:21.894Z,9.94
2019-03-19T10:44:21.874Z,9.91
2019-03-19T10:45:21.849Z,9.70
2019-03-19T10:46:21.827Z,9.82
2019-03-19T10:47:21.804Z,10.02
2019-03-19T10:48:21.783Z,9.91
2019-03-19T10:49:21.759Z,9.82
2019-03-19T10:50:22.570Z,10.33
2019-03-19T10:51:21.720Z,10.87
2019-03-19T10:52:21.695Z,11.23
2019-03-19T10:53:21.673Z,11.52
2019-03-19T10:54:21.651Z,11.81
2019-03-19T10:55:21.632Z,12.40
2019-03-19T10:56:21.610Z,12.43
2019-03-19T10:57:21.590Z,12.15
2019-03-19T10:58:21.571Z,12.50
2019-03-19T10:59:21.547Z,12.70
2019-03-19T11:00:21.525Z,13.19
2019-03-19T11:01:21.507Z,13.33
2019-03-19T11:02:21.490Z,13.60
2019-03-19T11:03:21.468Z,13.64
2019-03-19T11:04:21.447Z,14.40
2019-03-19T11:05:21.430Z,14.82
2019-03-19T11:06:21.409Z,15.12
2019-03-19T11:07:21.395Z,14.37
2019-03-19T11:08:21.374Z,14.12
2019-03-19T11:09:21.373Z,13.86
2019-03-19T11:10:21.339Z,13.03
2019-03-19T11:11:21.319Z,12.83
2019-03-19T11:12:21.302Z,12.50
2019-03-19T11:13:21.283Z,12.32
2019-03-19T11:14:21.266Z,11.85
2019-03-19T11:15:21.250Z,11.81
2019-03-19T11:16:21.228Z,11.44
2019-03-19T11:17:21.208Z,11.48
2019-03-19T11:18:21.194Z,12.17
2019-03-19T11:19:21.181Z,13.13
2019-03-19T11:20:21.152Z,13.79
2019-03-19T11:21:21.136Z,14.36
2019-03-19T11:22:21.115Z,14.79
2019-03-19T11:23:21.098Z,15.22
2019-03-19T11:24:21.080Z,15.19
2019-03-19T11:25:21.061Z,15.19
2019-03-19T11:26:21.048Z,15.65
2019-03-19T11:27:21.032Z,16.26
2019-03-19T11:28:21.009Z,16.65
2019-03-19T11:29:20.991Z,16.32
2019-03-19T11:30:20.980Z,16.82
2019-03-19T11:31:20.961Z,17.20
2019-03-19T11:32:20.943Z,17.80
2019-03-19T11:33:20.939Z,17.87
2019-03-19T11:34:20.912Z,18.00
2019-03-19T11:35:20.896Z,17.80
2019-03-19T11:36:20.878Z,17.13
2019-03-19T11:37:20.874Z,17.04
2019-03-19T11:38:20.850Z,16.98
2019-03-19T11:39:20.847Z,16.36
2019-03-19T11:40:20.818Z,16.12
2019-03-19T11:41:20.800Z,16.62
2019-03-19T11:42:20.786Z,17.20
2019-03-19T11:43:20.776Z,17.90
2019-03-19T11:44:20.757Z,18.55
2019-03-19T11:45:20.743Z,18.94
2019-03-19T11:46:20.731Z,18.68
2019-03-19T11:47:20.716Z,17.37
2019-03-19T11:48:20.702Z,15.12
2019-03-19T11:49:20.687Z,13.93
2019-03-19T11:50:20.679Z,13.16
2019-03-19T11:51:20.864Z,12.72
2019-03-19T11:52:20.646Z,12.51
2019-03-19T11:53:20.633Z,12.11
2019-03-19T11:54:20.615Z,13.02
2019-03-19T11:55:20.605Z,13.30
2019-03-19T11:56:20.584Z,13.33
2019-03-19T11:57:20.568Z,12.88
2019-03-19T11:58:20.554Z,13.47
2019-03-19T11:59:20.535Z,13.65
2019-03-19T12:00:20.520Z,12.86
2019-03-19T12:01:20.505Z,12.69
2019-03-19T12:02:25.843Z,12.51
2019-03-19T12:03:20.474Z,12.39
2019-03-19T12:04:20.456Z,12.36
2019-03-19T12:05:20.449Z,12.87
2019-03-19T12:06:20.421Z,13.33
2019-03-19T12:07:20.403Z,13.08
2019-03-19T12:08:20.388Z,12.65
2019-03-19T12:09:20.369Z,12.58
2019-03-19T12:10:20.352Z,12.48
2019-03-19T12:11:20.335Z,12.37
2019-03-19T12:12:20.318Z,12.39
2019-03-19T12:13:20.298Z,12.78
2019-03-19T12:14:20.319Z,13.39
2019-03-19T12:15:20.260Z,13.62
2019-03-19T12:16:20.243Z,13.70
2019-03-19T12:17:20.225Z,13.42
2019-03-19T12:18:20.206Z,13.08
2019-03-19T12:19:20.188Z,12.68
2019-03-19T12:20:20.884Z,12.51
2019-03-19T12:21:20.152Z,12.07
2019-03-19T12:22:20.881Z,11.95
2019-03-19T12:23:20.113Z,11.91
2019-03-19T12:24:20.097Z,11.99
2019-03-19T12:25:20.082Z,12.11
2019-03-19T12:26:20.076Z,12.36
2019-03-19T12:27:20.039Z,12.37
2019-03-19T12:28:20.020Z,12.18
2019-03-19T12:29:20.001Z,11.73
2019-03-19T12:30:22.603Z,11.70
2019-03-19T12:31:19.965Z,11.59
2019-03-19T12:32:20.002Z,11.59
2019-03-19T12:33:19.930Z,11.35
2019-03-19T12:34:19.908Z,11.20
2019-03-19T12:35:19.883Z,11.02
2019-03-19T12:36:19.865Z,10.97
2019-03-19T12:37:19.845Z,10.89
2019-03-19T12:38:19.827Z,11.33
2019-03-19T12:39:19.813Z,11.89
2019-03-19T12:40:19.786Z,12.28
2019-03-19T12:41:19.766Z,12.80
2019-03-19T12:42:19.747Z,13.20
2019-03-19T12:43:19.724Z,13.46
2019-03-19T12:44:19.706Z,13.62
2019-03-19T12:45:19.686Z,13.79
2019-03-19T12:46:19.668Z,14.15
2019-03-19T12:47:19.646Z,14.22
2019-03-19T12:48:19.627Z,13.91
2019-03-19T12:49:19.608Z,13.89
2019-03-19T12:50:19.589Z,13.39
2019-03-19T12:51:19.569Z,13.37
2019-03-19T12:52:19.551Z,13.45
2019-03-19T12:53:19.534Z,13.58
2019-03-19T12:54:19.514Z,13.60
2019-03-19T12:55:19.491Z,13.43
2019-03-19T12:56:19.477Z,13.39
2019-03-19T12:57:19.454Z,13.27
2019-03-19T12:58:19.436Z,13.20
2019-03-19T12:59:20.508Z,13.40
2019-03-19T13:00:19.397Z,13.62
2019-03-19T13:01:19.466Z,13.67
2019-03-19T13:02:19.359Z,13.40
2019-03-19T13:03:19.339Z,13.50
2019-03-19T13:04:19.323Z,13.67
2019-03-19T13:05:22.141Z,13.71
2019-03-19T13:06:19.284Z,14.07
2019-03-19T13:07:19.263Z,14.38
2019-03-19T13:08:20.414Z,14.51
2019-03-19T13:09:19.227Z,13.80
2019-03-19T13:10:19.207Z,13.94
2019-03-19T13:11:19.192Z,14.13
2019-03-19T13:12:19.173Z,13.80
2019-03-19T13:13:19.153Z,13.89